Weather at Hvolsvöllur Airport

Public forecast

Using degrees Celsius for public forecast. Weather courtesy of forecast.io.

Closest aviation weather report (METAR) to Hvolsvöllur Airport

Closest report is Vestmannaeyjar Airport, 19.8 nm (36.7 km) S. Retrieved 2021/06/20 09:00 UTC (49 minutes ago):

BIVM 200900Z 31014KT 290V360 CAVOK 08/03 Q1015

Closest aviation forecast (TAF) to Hvolsvöllur Airport

Closest forecast is Reykjavik Airport, 50.1 nm (92.8 km) WNW. Retrieved 2021/06/20 09:55 UTC (0 seconds ago):

TAF BIRK 200748Z 2009/2109 30012KT 9999 FEW024 BKN040 TX10/2015Z TN06/2103Z BECMG 2021/2023 24010KT TEMPO 2023/2105 -RA BKN015 OVC030 BECMG 2104/2106 18012KT